createdAt,value
2023-03-29T00:00:14.666Z,101244.16
2023-03-29T00:02:49.167Z,101239.84
2023-03-29T00:05:23.234Z,101217.50
2023-03-29T00:08:01.952Z,101230.56
2023-03-29T00:10:34.423Z,101226.47
2023-03-29T00:13:05.875Z,101212.69
2023-03-29T00:15:36.839Z,101223.59
2023-03-29T00:18:07.750Z,101212.50
2023-03-29T00:20:45.867Z,101219.31
2023-03-29T00:23:19.405Z,101214.31
2023-03-29T00:25:49.944Z,101212.88
2023-03-29T00:28:20.589Z,101217.69
2023-03-29T00:30:52.346Z,101210.72
2023-03-29T00:33:23.659Z,101178.75
2023-03-29T00:35:56.361Z,101197.88
2023-03-29T00:38:29.552Z,101198.72
2023-03-29T00:41:00.343Z,101197.69
2023-03-29T00:43:31.419Z,101187.28
2023-03-29T00:46:04.085Z,101199.13
2023-03-29T00:48:34.705Z,101202.31
2023-03-29T00:51:10.360Z,101193.72
2023-03-29T00:53:48.893Z,101188.38
2023-03-29T00:56:24.890Z,101184.47
2023-03-29T00:59:00.633Z,101179.44
2023-03-29T01:01:38.302Z,101178.03
2023-03-29T01:04:18.739Z,101166.59
2023-03-29T01:06:57.019Z,101164.78
2023-03-29T01:09:33.249Z,101165.50
2023-03-29T01:12:08.477Z,101155.13
2023-03-29T01:14:43.124Z,101149.25
2023-03-29T01:17:16.236Z,101137.59
2023-03-29T01:19:50.663Z,101137.59
2023-03-29T01:22:31.194Z,101130.66
2023-03-29T01:25:13.374Z,101136.19
2023-03-29T01:27:54.316Z,101123.16
2023-03-29T01:30:30.772Z,101122.09
2023-03-29T01:33:06.466Z,101130.13
2023-03-29T01:35:43.918Z,101136.56
2023-03-29T01:38:21.019Z,101133.91
2023-03-29T01:40:51.728Z,101126.75
2023-03-29T01:43:31.720Z,101127.25
2023-03-29T01:46:08.089Z,101125.31
2023-03-29T01:48:46.017Z,101128.53
2023-03-29T01:51:21.575Z,101124.78
2023-03-29T01:54:00.336Z,101124.97
2023-03-29T01:56:37.782Z,101124.44
2023-03-29T01:59:15.481Z,101119.78
2023-03-29T02:01:51.881Z,101120.13
2023-03-29T02:04:29.227Z,101115.13
2023-03-29T02:07:01.733Z,101110.84
2023-03-29T02:09:33.213Z,101107.78
2023-03-29T02:12:10.230Z,101096.72
2023-03-29T02:14:43.480Z,101099.78
2023-03-29T02:17:22.098Z,101087.81
2023-03-29T02:19:58.358Z,101089.41
2023-03-29T02:22:33.717Z,101088.53
2023-03-29T02:25:07.528Z,101078.50
2023-03-29T02:27:38.668Z,101078.34
2023-03-29T02:30:14.751Z,101076.94
2023-03-29T02:32:55.920Z,101084.25
2023-03-29T02:35:34.867Z,101074.94
2023-03-29T02:38:07.934Z,101080.16
2023-03-29T02:40:42.283Z,101078.00
2023-03-29T02:43:16.005Z,101078.88
2023-03-29T02:45:50.346Z,101084.41
2023-03-29T02:48:24.847Z,101071.91
2023-03-29T02:50:59.711Z,101062.28
2023-03-29T02:53:35.029Z,101058.88
2023-03-29T02:56:06.344Z,101057.63
2023-03-29T02:58:37.113Z,101053.16
2023-03-29T03:01:11.429Z,101067.81
2023-03-29T03:03:42.989Z,101061.03
2023-03-29T03:06:14.174Z,101057.09
2023-03-29T03:08:45.008Z,101056.94
2023-03-29T03:11:15.566Z,101056.53
2023-03-29T03:13:46.108Z,101048.91
2023-03-29T03:16:19.718Z,101052.66
2023-03-29T03:18:51.497Z,101039.06
2023-03-29T03:21:22.391Z,101042.09
2023-03-29T03:23:53.653Z,101043.53
2023-03-29T03:26:30.288Z,101039.97
2023-03-29T03:29:02.537Z,101023.38
2023-03-29T03:31:55.845Z,101025.34
2023-03-29T03:34:49.855Z,101032.63
2023-03-29T03:37:20.509Z,101018.88
2023-03-29T03:39:52.087Z,101009.78
2023-03-29T03:42:23.064Z,101015.50
2023-03-29T03:44:54.321Z,101020.69
2023-03-29T03:47:54.173Z,101010.69
2023-03-29T03:50:38.380Z,101006.75
2023-03-29T03:53:10.657Z,100979.97
2023-03-29T03:56:02.381Z,100988.72
2023-03-29T03:58:38.233Z,100983.41
2023-03-29T04:01:10.385Z,100981.97
2023-03-29T04:03:49.939Z,100977.16
2023-03-29T04:06:22.788Z,100980.53
2023-03-29T04:09:25.916Z,100999.09
2023-03-29T04:12:14.006Z,100989.66
2023-03-29T04:14:47.629Z,100982.31
2023-03-29T04:17:22.918Z,100966.94
2023-03-29T04:20:11.852Z,100979.44
2023-03-29T04:22:44.080Z,100981.22
2023-03-29T04:25:14.713Z,100989.44
2023-03-29T04:27:51.724Z,100983.72
2023-03-29T04:30:34.053Z,100992.28
2023-03-29T04:33:04.662Z,100988.03
2023-03-29T04:35:39.079Z,100984.63
2023-03-29T04:38:13.524Z,100979.81
2023-03-29T04:40:45.254Z,100981.41
2023-03-29T04:43:23.903Z,100991.97
2023-03-29T04:46:10.425Z,100985.72
2023-03-29T04:49:04.103Z,100986.59
2023-03-29T04:51:41.661Z,100984.97
2023-03-29T04:54:13.724Z,100965.88
2023-03-29T04:57:02.833Z,100985.53
2023-03-29T04:59:42.370Z,100980.53
2023-03-29T05:02:37.061Z,100983.91
2023-03-29T05:05:08.698Z,100977.13
2023-03-29T05:07:42.897Z,100959.13
2023-03-29T05:10:15.180Z,100973.75
2023-03-29T05:12:47.174Z,100973.38
2023-03-29T05:15:17.941Z,100958.41
2023-03-29T05:17:49.074Z,100965.19
2023-03-29T05:20:20.356Z,100958.25
2023-03-29T05:22:54.967Z,100953.94
2023-03-29T05:25:45.506Z,100949.31
2023-03-29T05:28:16.318Z,100955.34
2023-03-29T05:30:47.677Z,100950.72
2023-03-29T05:33:24.771Z,100939.84
2023-03-29T05:36:02.481Z,100916.84
2023-03-29T05:38:37.192Z,100928.41
2023-03-29T05:41:09.306Z,100933.94
2023-03-29T05:43:43.127Z,100925.03
2023-03-29T05:46:14.146Z,100921.97
2023-03-29T05:48:51.981Z,100932.13
2023-03-29T05:51:24.920Z,100925.50
2023-03-29T05:54:01.735Z,100926.94
2023-03-29T05:56:32.335Z,100925.19
2023-03-29T05:59:03.468Z,100918.75
2023-03-29T06:01:34.277Z,100927.31
2023-03-29T06:04:09.289Z,100924.09
2023-03-29T06:06:46.819Z,100918.72
2023-03-29T06:09:20.251Z,100935.13
2023-03-29T06:12:05.401Z,100920.78
2023-03-29T06:14:43.093Z,100904.56
2023-03-29T06:17:23.071Z,100920.09
2023-03-29T06:19:53.700Z,100918.47
2023-03-29T06:22:28.210Z,100927.91
2023-03-29T06:25:01.938Z,100930.56
2023-03-29T06:27:37.220Z,100918.41
2023-03-29T06:30:09.961Z,100928.31
2023-03-29T06:32:41.586Z,100935.22
2023-03-29T06:35:22.963Z,100905.28
2023-03-29T06:37:59.778Z,100932.13
2023-03-29T06:40:40.890Z,100940.09
2023-03-29T06:43:12.462Z,100922.13
2023-03-29T06:46:12.357Z,100918.00
2023-03-29T06:48:57.218Z,100920.72
2023-03-29T06:51:33.801Z,100931.34
2023-03-29T06:54:04.611Z,100924.97
2023-03-29T06:56:39.851Z,100925.13
2023-03-29T06:59:16.398Z,100919.25
2023-03-29T07:02:12.733Z,100915.31
2023-03-29T07:05:12.278Z,100922.38
2023-03-29T07:08:05.002Z,100919.06
2023-03-29T07:11:03.399Z,100919.47
2023-03-29T07:13:43.286Z,100919.66
2023-03-29T07:16:19.459Z,100913.19
2023-03-29T07:19:12.665Z,100917.97
2023-03-29T07:22:08.322Z,100914.88
2023-03-29T07:24:49.571Z,100918.34
2023-03-29T07:27:21.021Z,100921.81
2023-03-29T07:29:57.152Z,100917.94
2023-03-29T07:32:28.431Z,100919.66
2023-03-29T07:35:08.310Z,100909.94
2023-03-29T07:37:39.885Z,100911.16
2023-03-29T07:40:16.357Z,100902.94
2023-03-29T07:43:09.571Z,100918.66
2023-03-29T07:45:47.373Z,100925.53
2023-03-29T07:48:18.311Z,100916.66
2023-03-29T07:50:53.838Z,100924.56
2023-03-29T07:53:29.912Z,100922.97
2023-03-29T07:56:02.586Z,100929.34
2023-03-29T07:58:53.257Z,100935.13
2023-03-29T08:01:26.963Z,100925.31
2023-03-29T08:04:06.107Z,100936.41
2023-03-29T08:06:55.501Z,100931.28
2023-03-29T08:09:32.283Z,100929.50
2023-03-29T08:12:02.907Z,100931.13
2023-03-29T08:14:39.180Z,100924.00
2023-03-29T08:17:22.973Z,100928.78
2023-03-29T08:19:54.526Z,100914.94
2023-03-29T08:22:27.305Z,100919.91
2023-03-29T08:25:08.113Z,100913.69
2023-03-29T08:27:47.700Z,100930.31
2023-03-29T08:30:25.192Z,100922.06
2023-03-29T08:32:58.647Z,100915.63
2023-03-29T08:35:29.760Z,100926.09
2023-03-29T08:38:14.463Z,100921.31
2023-03-29T08:40:45.667Z,100926.84
2023-03-29T08:43:50.561Z,100909.41
2023-03-29T08:46:47.142Z,100920.84
2023-03-29T08:49:29.850Z,100904.50
2023-03-29T08:52:04.676Z,100907.03
2023-03-29T08:54:40.363Z,100915.38
2023-03-29T08:57:20.806Z,100914.53
2023-03-29T08:59:58.459Z,100909.53
2023-03-29T09:02:34.157Z,100909.88
2023-03-29T09:05:23.529Z,100901.91
2023-03-29T09:08:16.606Z,100898.06
2023-03-29T09:10:50.995Z,100905.00
2023-03-29T09:13:35.780Z,100895.34
2023-03-29T09:16:15.793Z,100908.34
2023-03-29T09:18:59.292Z,100912.72
2023-03-29T09:21:46.968Z,100918.03
2023-03-29T09:24:32.921Z,100911.38
2023-03-29T09:27:13.008Z,100908.72
2023-03-29T09:29:59.847Z,100909.50
2023-03-29T09:32:54.690Z,100906.16
2023-03-29T09:35:38.425Z,100898.50
2023-03-29T09:38:15.452Z,100895.69
2023-03-29T09:40:50.996Z,100908.81
2023-03-29T09:43:32.782Z,100905.72
2023-03-29T09:46:08.285Z,100905.63
2023-03-29T09:48:42.789Z,100913.31
2023-03-29T09:51:15.909Z,100904.88
2023-03-29T09:53:49.880Z,100881.44
2023-03-29T09:56:32.541Z,100865.94
2023-03-29T09:59:15.608Z,100887.00
2023-03-29T10:01:48.454Z,100884.06
2023-03-29T10:04:22.419Z,100881.53
2023-03-29T10:07:01.583Z,100887.28
2023-03-29T10:09:36.221Z,100858.28
2023-03-29T10:12:19.727Z,100881.09
2023-03-29T10:14:54.012Z,100877.38
2023-03-29T10:17:26.881Z,100875.31
2023-03-29T10:20:03.071Z,100882.16
2023-03-29T10:22:38.248Z,100878.13
2023-03-29T10:25:17.284Z,100883.72
2023-03-29T10:27:51.038Z,100881.19
2023-03-29T10:30:28.693Z,100854.84
2023-03-29T10:33:02.123Z,100888.66
2023-03-29T10:35:37.615Z,100883.25
2023-03-29T10:38:13.557Z,100882.72
2023-03-29T10:40:51.925Z,100883.63
2023-03-29T10:43:26.189Z,100874.91
2023-03-29T10:45:57.963Z,100867.22
2023-03-29T10:48:32.791Z,100864.28
2023-03-29T10:51:05.921Z,100870.22
2023-03-29T10:53:39.443Z,100845.66
2023-03-29T10:56:35.195Z,100863.50
2023-03-29T10:59:30.330Z,100852.34
2023-03-29T11:02:42.577Z,100852.47
2023-03-29T11:05:25.728Z,100844.19
2023-03-29T11:08:12.776Z,100834.88
2023-03-29T11:10:51.531Z,100832.94
2023-03-29T11:13:31.815Z,100841.94
2023-03-29T11:16:13.314Z,100832.13
2023-03-29T11:19:18.503Z,100842.44
2023-03-29T11:21:59.298Z,100828.25
2023-03-29T11:24:38.956Z,100832.72
2023-03-29T11:27:23.950Z,100841.84
2023-03-29T11:30:08.810Z,100836.03
2023-03-29T11:32:48.908Z,100841.06
2023-03-29T11:35:45.186Z,100826.47
2023-03-29T11:38:32.592Z,100824.28
2023-03-29T11:41:11.637Z,100839.50
2023-03-29T11:43:47.914Z,100835.88
2023-03-29T11:46:28.579Z,100838.69
2023-03-29T11:49:05.641Z,100834.25
2023-03-29T11:51:41.488Z,100826.81
2023-03-29T11:54:20.849Z,100815.81
2023-03-29T11:56:58.648Z,100818.16
2023-03-29T11:59:36.019Z,100816.06
2023-03-29T12:02:19.797Z,100809.44
2023-03-29T12:04:55.169Z,100815.53
2023-03-29T12:07:33.668Z,100817.47
2023-03-29T12:10:10.178Z,100815.91
2023-03-29T12:12:48.444Z,100802.00
2023-03-29T12:15:21.770Z,100809.00
2023-03-29T12:18:27.490Z,100792.47
2023-03-29T12:21:02.439Z,100799.81
2023-03-29T12:23:36.435Z,100803.13
2023-03-29T12:26:16.455Z,100799.22
2023-03-29T12:29:12.224Z,100796.28
2023-03-29T12:31:51.977Z,100784.63
2023-03-29T12:34:41.898Z,100785.66
2023-03-29T12:37:50.341Z,100778.09
2023-03-29T12:41:05.376Z,100785.50
2023-03-29T12:43:54.888Z,100784.00
2023-03-29T12:46:39.256Z,100782.81
2023-03-29T12:49:16.117Z,100795.06
2023-03-29T12:51:49.859Z,100794.25
2023-03-29T12:54:28.079Z,100791.94
2023-03-29T12:57:02.531Z,100796.97
2023-03-29T12:59:43.175Z,100783.88
2023-03-29T13:02:39.600Z,100771.00
2023-03-29T13:05:32.304Z,100787.06
2023-03-29T13:08:20.240Z,100789.34
2023-03-29T13:10:57.802Z,100800.63
2023-03-29T13:13:32.634Z,100789.56
2023-03-29T13:16:18.126Z,100793.03
2023-03-29T13:19:09.553Z,100800.56
2023-03-29T13:21:51.540Z,100792.91
2023-03-29T13:24:45.114Z,100789.47
2023-03-29T13:27:28.100Z,100794.22
2023-03-29T13:30:26.234Z,100787.28
2023-03-29T13:33:13.651Z,100789.06
2023-03-29T13:35:52.114Z,100781.13
2023-03-29T13:38:28.847Z,100772.28
2023-03-29T13:41:07.552Z,100776.03
2023-03-29T13:43:40.536Z,100770.16
2023-03-29T13:46:25.266Z,100765.75
2023-03-29T13:49:02.468Z,100730.28
2023-03-29T13:51:45.148Z,100765.00
2023-03-29T13:54:29.647Z,100757.09
2023-03-29T13:57:04.892Z,100755.81
2023-03-29T13:59:41.662Z,100753.13
2023-03-29T14:02:19.778Z,100749.31
2023-03-29T14:04:54.263Z,100728.59
2023-03-29T14:07:27.272Z,100744.75
2023-03-29T14:10:01.620Z,100728.94
2023-03-29T14:12:41.849Z,100720.88
2023-03-29T14:15:24.047Z,100739.03
2023-03-29T14:18:00.655Z,100738.81
2023-03-29T14:20:34.383Z,100738.88
2023-03-29T14:23:13.331Z,100726.69
2023-03-29T14:25:46.892Z,100734.66
2023-03-29T14:28:29.072Z,100722.56
2023-03-29T14:30:59.977Z,100731.22
2023-03-29T14:33:34.641Z,100724.59
2023-03-29T14:36:07.987Z,100730.94
2023-03-29T14:38:39.703Z,100726.97
2023-03-29T14:41:10.416Z,100720.00
2023-03-29T14:43:44.091Z,100731.16
2023-03-29T14:46:17.314Z,100732.97
2023-03-29T14:48:48.657Z,100723.19
2023-03-29T14:51:20.293Z,100715.84
2023-03-29T14:53:52.100Z,100719.34
2023-03-29T14:56:25.770Z,100723.59
2023-03-29T14:59:00.396Z,100707.72
2023-03-29T15:01:31.476Z,100707.19
2023-03-29T15:04:08.144Z,100710.25
2023-03-29T15:06:44.322Z,100697.97
2023-03-29T15:09:19.782Z,100702.00
2023-03-29T15:11:57.839Z,100706.50
2023-03-29T15:14:34.482Z,100700.66
2023-03-29T15:17:07.193Z,100696.94
2023-03-29T15:19:39.482Z,100700.00
2023-03-29T15:22:11.967Z,100684.13
2023-03-29T15:24:47.497Z,100682.34
2023-03-29T15:27:21.272Z,100696.47
2023-03-29T15:30:03.104Z,100683.59
2023-03-29T15:32:39.141Z,100682.56
2023-03-29T15:35:12.445Z,100685.22
2023-03-29T15:37:43.077Z,100673.88
2023-03-29T15:40:18.302Z,100662.94
2023-03-29T15:42:49.310Z,100666.84
2023-03-29T15:45:26.063Z,100676.03
2023-03-29T15:47:57.181Z,100664.31
2023-03-29T15:50:27.881Z,100665.59
2023-03-29T15:53:12.294Z,100657.06
2023-03-29T15:55:49.034Z,100647.59
2023-03-29T15:58:22.875Z,100633.00
2023-03-29T16:01:02.919Z,100643.50
2023-03-29T16:03:33.806Z,100652.69
2023-03-29T16:06:04.795Z,100651.06
2023-03-29T16:08:36.106Z,100653.19
2023-03-29T16:11:07.680Z,100627.16
2023-03-29T16:13:39.557Z,100641.75
2023-03-29T16:16:17.459Z,100640.72
2023-03-29T16:18:52.950Z,100632.97
2023-03-29T16:21:26.683Z,100643.31
2023-03-29T16:23:57.594Z,100642.41
2023-03-29T16:26:30.506Z,100642.91
2023-03-29T16:29:01.227Z,100638.06
2023-03-29T16:31:36.675Z,100634.66
2023-03-29T16:34:10.031Z,100634.03
2023-03-29T16:36:41.699Z,100634.94
2023-03-29T16:39:16.067Z,100646.66
2023-03-29T16:41:51.502Z,100629.34
2023-03-29T16:44:29.365Z,100630.63
2023-03-29T16:47:03.253Z,100632.28
2023-03-29T16:49:39.932Z,100627.59
2023-03-29T16:52:11.751Z,100627.28
2023-03-29T16:54:42.799Z,100636.06
2023-03-29T16:57:13.828Z,100623.94
2023-03-29T16:59:47.568Z,100634.59
2023-03-29T17:02:21.104Z,100630.25
2023-03-29T17:04:54.225Z,100636.06
2023-03-29T17:07:27.293Z,100642.59
2023-03-29T17:09:57.994Z,100635.50
2023-03-29T17:12:32.985Z,100632.84
2023-03-29T17:15:04.599Z,100640.00
2023-03-29T17:17:38.261Z,100614.53
2023-03-29T17:20:12.587Z,100616.63
2023-03-29T17:22:43.307Z,100606.41
2023-03-29T17:25:14.230Z,100601.97
2023-03-29T17:27:45.639Z,100599.59
2023-03-29T17:30:16.937Z,100589.84
2023-03-29T17:32:50.256Z,100582.44
2023-03-29T17:35:21.035Z,100570.19
2023-03-29T17:37:51.753Z,100570.78
2023-03-29T17:40:22.742Z,100575.06
2023-03-29T17:42:53.574Z,100586.16
2023-03-29T17:45:24.443Z,100575.06
2023-03-29T17:47:57.674Z,100572.41
2023-03-29T17:50:28.557Z,100570.22
2023-03-29T17:52:59.242Z,100582.34
2023-03-29T17:55:29.989Z,100585.31
2023-03-29T17:58:00.653Z,100582.63
2023-03-29T18:00:31.360Z,100583.25
2023-03-29T18:03:04.690Z,100584.88
2023-03-29T18:05:37.473Z,100575.53
2023-03-29T18:08:10.926Z,100579.97
2023-03-29T18:10:43.652Z,100579.84
2023-03-29T18:13:16.531Z,100547.34
2023-03-29T18:15:48.017Z,100574.66
2023-03-29T18:18:24.950Z,100577.31
2023-03-29T18:20:56.858Z,100574.03
2023-03-29T18:23:27.809Z,100585.00
2023-03-29T18:26:03.109Z,100580.88
2023-03-29T18:28:34.008Z,100572.00
2023-03-29T18:31:04.625Z,100569.97
2023-03-29T18:33:38.286Z,100576.63
2023-03-29T18:36:13.245Z,100563.59
2023-03-29T18:38:44.604Z,100570.56
2023-03-29T18:41:17.210Z,100569.66
2023-03-29T18:43:47.912Z,100594.13
2023-03-29T18:46:18.583Z,100584.06
2023-03-29T18:48:53.967Z,100584.66
2023-03-29T18:51:25.983Z,100577.09
2023-03-29T18:53:56.958Z,100590.59
2023-03-29T18:56:28.190Z,100578.47
2023-03-29T18:58:59.017Z,100587.22
2023-03-29T19:01:29.773Z,100589.13
2023-03-29T19:04:03.348Z,100586.16
2023-03-29T19:06:34.628Z,100582.91
2023-03-29T19:09:05.608Z,100558.66
2023-03-29T19:11:36.909Z,100539.00
2023-03-29T19:14:09.455Z,100559.50
2023-03-29T19:16:42.297Z,100561.88
2023-03-29T19:19:16.234Z,100548.69
2023-03-29T19:21:47.199Z,100542.63
2023-03-29T19:24:17.957Z,100538.06
2023-03-29T19:26:50.202Z,100540.31
2023-03-29T19:29:21.101Z,100533.63
2023-03-29T19:31:52.228Z,100537.69
2023-03-29T19:34:28.022Z,100528.94
2023-03-29T19:37:00.600Z,100532.06
2023-03-29T19:39:31.377Z,100503.84
2023-03-29T19:42:02.681Z,100530.75
2023-03-29T19:44:33.864Z,100524.84
2023-03-29T19:47:04.795Z,100522.47
2023-03-29T19:49:39.320Z,100511.78
2023-03-29T19:52:10.800Z,100520.34
2023-03-29T19:54:42.677Z,100508.06
2023-03-29T19:57:14.506Z,100501.22
2023-03-29T19:59:46.892Z,100499.47
2023-03-29T20:02:18.503Z,100482.41
2023-03-29T20:04:53.436Z,100501.56
2023-03-29T20:07:25.963Z,100496.53
2023-03-29T20:09:58.561Z,100489.75
2023-03-29T20:12:30.765Z,100484.56
2023-03-29T20:15:03.059Z,100463.88
2023-03-29T20:17:36.123Z,100462.38
2023-03-29T20:20:14.868Z,100444.94
2023-03-29T20:22:47.385Z,100453.53
2023-03-29T20:25:19.799Z,100439.31
2023-03-29T20:27:53.534Z,100445.84
2023-03-29T20:30:26.104Z,100431.53
2023-03-29T20:32:58.853Z,100431.66
2023-03-29T20:35:32.270Z,100434.94
2023-03-29T20:38:02.967Z,100416.44
2023-03-29T20:40:34.616Z,100427.06
2023-03-29T20:43:05.742Z,100427.63
2023-03-29T20:45:51.623Z,100426.25
2023-03-29T20:48:24.990Z,100432.44
2023-03-29T20:50:58.364Z,100432.44
2023-03-29T20:53:35.049Z,100424.16
2023-03-29T20:56:06.670Z,100420.16
2023-03-29T20:58:42.170Z,100417.00
2023-03-29T21:01:14.476Z,100422.91
2023-03-29T21:03:45.397Z,100420.66
2023-03-29T21:06:19.439Z,100421.69
2023-03-29T21:08:50.589Z,100415.78
2023-03-29T21:11:22.170Z,100409.09
2023-03-29T21:13:52.914Z,100408.38
2023-03-29T21:16:25.396Z,100407.47
2023-03-29T21:18:56.535Z,100404.34
2023-03-29T21:21:30.727Z,100387.31
2023-03-29T21:24:01.332Z,100390.59
2023-03-29T21:26:31.927Z,100373.81
2023-03-29T21:29:03.103Z,100394.75
2023-03-29T21:31:33.739Z,100385.41
2023-03-29T21:34:04.678Z,100390.44
2023-03-29T21:36:38.413Z,100375.22
2023-03-29T21:39:09.066Z,100362.97
2023-03-29T21:41:41.573Z,100377.59
2023-03-29T21:44:12.954Z,100370.78
2023-03-29T21:46:43.611Z,100375.81
2023-03-29T21:49:14.947Z,100378.84
2023-03-29T21:51:48.272Z,100371.47
2023-03-29T21:54:19.057Z,100361.84
2023-03-29T21:56:50.796Z,100356.84
2023-03-29T21:59:21.531Z,100356.16
2023-03-29T22:01:52.292Z,100351.34
2023-03-29T22:04:35.923Z,100349.44
2023-03-29T22:07:11.008Z,100348.69
2023-03-29T22:09:42.561Z,100341.00
2023-03-29T22:12:13.244Z,100323.59
2023-03-29T22:14:44.223Z,100336.25
2023-03-29T22:17:16.308Z,100347.13
2023-03-29T22:19:47.720Z,100309.06
2023-03-29T22:22:21.900Z,100323.75
2023-03-29T22:24:54.959Z,100314.97
2023-03-29T22:27:26.138Z,100310.66
2023-03-29T22:29:58.769Z,100306.41
2023-03-29T22:32:31.979Z,100297.69
2023-03-29T22:35:02.511Z,100302.94
2023-03-29T22:37:36.140Z,100289.19
2023-03-29T22:40:09.852Z,100279.34
2023-03-29T22:42:40.413Z,100284.38
2023-03-29T22:45:12.483Z,100273.03
2023-03-29T22:47:43.183Z,100267.09
2023-03-29T22:50:14.323Z,100259.44
2023-03-29T22:52:47.425Z,100267.72
2023-03-29T22:55:18.287Z,100277.78
2023-03-29T22:57:48.918Z,100279.56
2023-03-29T23:00:20.267Z,100272.41
2023-03-29T23:02:50.943Z,100270.66
2023-03-29T23:05:21.664Z,100254.41
2023-03-29T23:07:56.016Z,100249.38
2023-03-29T23:10:29.253Z,100246.09
2023-03-29T23:13:08.703Z,100232.13
2023-03-29T23:15:42.985Z,100250.41
2023-03-29T23:18:18.515Z,100240.22
2023-03-29T23:20:51.422Z,100238.16
2023-03-29T23:23:26.093Z,100237.00
2023-03-29T23:25:58.368Z,100232.00
2023-03-29T23:28:31.554Z,100229.94
2023-03-29T23:31:04.446Z,100223.44
2023-03-29T23:33:38.826Z,100222.53
2023-03-29T23:36:11.823Z,100225.50
2023-03-29T23:38:48.005Z,100201.75
2023-03-29T23:41:20.304Z,100209.84
2023-03-29T23:43:52.398Z,100201.41
2023-03-29T23:46:23.243Z,100197.03
2023-03-29T23:48:54.355Z,100197.88
2023-03-29T23:51:29.027Z,100193.63
2023-03-29T23:54:02.392Z,100185.06
2023-03-29T23:56:33.561Z,100188.34
2023-03-29T23:59:04.696Z,100182.28
